KUNV/SCE METAR and TAF weather

Enter ICAO airport designator
Station Type Date Time Source
KUNV METAR 2019/04/25 07:55 UTC NOAA

KUNV 250755Z AUTO 00000KT 10SM CLR 09/03 A2991 RMK AO2 T00860026


Station Type Date Time Source
KUNV Decoded METAR 2019/04/25 07:55 UTC NOAA

State College, University Park Airport, PA, United States (KUNV) 40-51N 077-51W
Apr 25, 2019 - 03:55 AM EDT / 2019.04.25 0755 UTC
Wind: Calm:0
Visibility: 10 mile(s):0
Sky conditions: clear
Temperature: 47.5 F (8.6 C)
Dew Point: 36.7 F (2.6 C)
Relative Humidity: 65%
Pressure (altimeter): 29.91 in. Hg (1012 hPa)
ob: KUNV 250755Z AUTO 00000KT 10SM CLR 09/03 A2991 RMK AO2 T00860026
cycle: 8

Station Type Date Time Source
KUNV TAF 2019/04/25 06:42 UTC NOAA

TAF KUNV 250540Z 2506/2606 00000KT P6SM OVC200
FM251000 VRB03KT P6SM SCT060 OVC120
FM251300 VRB03KT P6SM OVC060
FM252000 15005KT 4SM -RA BR OVC025
FM260200 16008KT 3SM RA BR OVC012

Example: see airport list